Time;durP1;ratioP1;P1;durP2;ratioP2;P2;SDS_P1;SDS_P2;PMS_P1;PMS_P2;Temp;Humidity;BMP_temperature;BMP_pressure;BME280_temperature;BME280_humidity;BME280_pressure;Samples;Min_cycle;Max_cycle;Signal;HPM_P1;HPM_P2
2023/03/18 00:01:02;;;;;;;66.50;4.25;;;;;;;22.04;54.38;99040.78;7309575;19;129588;-39
2023/03/18 00:03:32;;;;;;;59.78;3.83;;;;;;;22.02;53.57;99036.66;7310510;19;129540;-41
2023/03/18 00:06:15;;;;;;;69.97;4.53;;;;;;;22.01;56.02;99032.41;7307144;19;129140;-39
2023/03/18 00:08:42;;;;;;;35.08;2.60;;;;;;;22.01;54.43;99032.41;7308620;19;128968;-41
2023/03/18 00:11:09;;;;;;;49.97;3.40;;;;;;;21.89;54.58;99006.53;7312295;19;130202;-39
2023/03/18 00:13:35;;;;;;;43.53;3.03;;;;;;;21.98;54.29;99022.25;7309688;19;129984;-41
2023/03/18 00:16:03;;;;;;;40.97;3.20;;;;;;;21.95;54.82;99026.84;7310622;19;129446;-40
2023/03/18 00:18:29;;;;;;;58.35;4.03;;;;;;;21.93;54.76;99034.00;7309289;19;129245;-40
2023/03/18 00:20:56;;;;;;;80.18;4.95;;;;;;;21.94;54.93;99016.53;7309328;19;130012;-40
2023/03/18 00:23:22;;;;;;;47.65;3.00;;;;;;;21.83;54.84;99012.38;7309342;19;129819;-40
2023/03/18 00:25:47;;;;;;;49.28;3.53;;;;;;;21.96;54.71;99025.03;7310436;19;128876;-41
2023/03/18 00:28:13;;;;;;;34.20;2.43;;;;;;;21.98;54.57;99029.13;7308144;19;129021;-41
2023/03/18 00:30:41;;;;;;;77.03;4.57;;;;;;;22.00;54.70;99028.16;7311326;19;130306;-41
2023/03/18 00:33:08;;;;;;;64.05;4.20;;;;;;;22.02;55.01;99036.66;7309656;19;130547;-40
2023/03/18 00:35:35;;;;;;;;;;;;;;;22.07;57.70;99043.09;7309564;19;130138;-41
2023/03/18 00:38:02;;;;;;;49.65;3.55;;;;;;;22.05;55.85;99020.69;7308797;19;129065;-39
2023/03/18 00:40:42;;;;;;;53.97;3.35;;;;;;;22.04;55.94;99029.47;7311936;19;130343;-40
2023/03/18 00:43:11;;;;;;;59.03;3.63;;;;;;;22.05;56.79;99026.72;7310283;19;131155;-41
2023/03/18 00:45:39;;;;;;;41.70;3.03;;;;;;;22.06;55.78;99038.84;7309851;19;129221;-40
2023/03/18 00:48:06;;;;;;;56.45;3.65;;;;;;;22.06;56.24;99040.63;7307346;19;129155;-41
2023/03/18 00:50:35;;;;;;;93.55;5.63;;;;;;;22.06;55.65;99032.78;7309226;19;129383;-41
2023/03/18 00:53:01;;;;;;;69.90;4.35;;;;;;;22.09;56.80;99016.75;7313899;19;129186;-39
2023/03/18 00:55:27;;;;;;;58.37;3.57;;;;;;;22.03;56.15;99012.16;7315278;19;129762;-39
2023/03/18 00:57:53;;;;;;;36.67;2.70;;;;;;;22.08;54.97;99020.34;7316596;19;129194;-40
2023/03/18 01:00:18;;;;;;;17.37;2.03;;;;;;;22.10;56.29;99015.78;7316214;19;129731;-41
2023/03/18 01:02:44;;;;;;;69.15;4.15;;;;;;;22.11;56.62;99014.81;7315161;19;129895;-40
2023/03/18 01:05:11;;;;;;;54.83;3.70;;;;;;;22.01;56.29;98993.16;7317758;19;129390;-39
2023/03/18 01:07:37;;;;;;;56.63;3.85;;;;;;;22.11;55.76;99004.34;7314974;19;129120;-40
2023/03/18 01:10:03;;;;;;;30.35;2.28;;;;;;;22.11;55.45;98999.09;7314217;19;129247;-40
2023/03/18 01:12:28;;;;;;;67.30;3.87;;;;;;;22.01;56.13;98990.53;7316152;19;130131;-40
2023/03/18 01:14:54;;;;;;;86.10;5.22;;;;;;;22.13;56.17;99002.38;7315818;19;129770;-40
2023/03/18 01:17:19;;;;;;;52.40;3.43;;;;;;;22.12;56.07;98993.69;7315230;19;129416;-39
2023/03/18 01:19:47;;;;;;;40.33;2.90;;;;;;;22.13;55.79;99008.41;7315058;19;129071;-41
2023/03/18 01:22:13;;;;;;;60.33;3.38;;;;;;;22.12;56.21;98998.94;7317448;19;130577;-42
2023/03/18 01:24:39;;;;;;;98.28;5.78;;;;;;;22.10;55.88;98995.66;7314199;19;129292;-40
2023/03/18 01:27:05;;;;;;;19.83;1.90;;;;;;;22.14;55.57;98998.78;7314816;19;129096;-39
2023/03/18 01:29:30;;;;;;;45.80;3.10;;;;;;;22.14;56.70;98994.38;7313098;19;129662;-39
2023/03/18 01:31:55;;;;;;;88.40;5.13;;;;;;;22.14;56.75;98985.69;7315200;19;129553;-41
2023/03/18 01:34:21;;;;;;;42.85;2.92;;;;;;;22.15;56.78;98997.81;7314910;19;128960;-40
2023/03/18 01:36:46;;;;;;;40.10;2.80;;;;;;;22.16;56.64;98996.81;7314988;19;128987;-40
2023/03/18 01:39:13;;;;;;;43.80;2.92;;;;;;;22.16;56.42;98996.81;7314874;19;130204;-41
2023/03/18 01:41:39;;;;;;;63.65;3.88;;;;;;;22.16;57.03;98999.44;7314854;19;130518;-40
2023/03/18 01:44:12;;;;;;;32.50;2.37;;;;;;;22.17;56.26;98993.22;7315164;19;129939;-40
2023/03/18 01:46:43;;;;;;;47.53;2.92;;;;;;;22.16;57.05;98987.19;7314410;19;129538;-41
2023/03/18 01:49:25;;;;;;;35.03;2.40;;;;;;;22.17;57.20;98990.59;7313034;19;130534;-41
2023/03/18 01:52:24;;;;;;;79.60;4.90;;;;;;;22.16;57.03;98986.34;7313977;19;131173;-41
2023/03/18 01:54:57;;;;;;;58.15;3.78;;;;;;;22.15;56.99;98987.34;7314512;19;128819;-40
2023/03/18 01:57:23;;;;;;;64.80;3.92;;;;;;;22.15;57.00;98995.19;7313576;19;129064;-40
2023/03/18 01:59:52;;;;;;;79.73;4.67;;;;;;;22.13;56.70;98994.53;7315640;19;129868;-40
2023/03/18 02:02:18;;;;;;;32.67;2.22;;;;;;;22.15;56.99;98979.50;7313062;19;129375;-40
2023/03/18 02:04:49;;;;;;;37.47;2.57;;;;;;;22.03;57.44;98972.88;7315855;19;129464;-40
2023/03/18 02:07:21;;;;;;;42.58;2.78;;;;;;;22.16;56.91;98986.34;7313611;19;129519;-40
2023/03/18 02:09:49;;;;;;;65.50;3.88;;;;;;;22.15;56.83;99001.22;7311119;19;129171;-41
2023/03/18 02:12:21;;;;;;;34.72;2.65;;;;;;;22.15;57.03;98990.75;7313758;19;129426;-38
2023/03/18 02:14:47;;;;;;;43.28;3.10;;;;;;;22.14;56.17;98998.78;7315397;19;129747;-40
2023/03/18 02:17:20;;;;;;;55.55;3.45;;;;;;;22.13;57.48;98997.94;7314319;19;129091;-40
2023/03/18 02:20:09;;;;;;;52.97;3.35;;;;;;;22.04;57.53;98988.44;7314479;19;130036;-40
2023/03/18 02:22:40;;;;;;;43.40;2.85;;;;;;;22.12;56.72;99005.97;7312899;19;130940;-41
2023/03/18 02:25:32;;;;;;;30.27;2.25;;;;;;;22.10;57.04;99002.69;7311200;19;129150;-41
2023/03/18 02:28:05;;;;;;;82.72;4.90;;;;;;;22.07;57.04;99008.22;7311968;19;129602;-40
2023/03/18 02:30:36;;;;;;;58.90;3.53;;;;;;;22.00;55.54;99002.00;7313876;19;129006;-39
2023/03/18 02:33:02;;;;;;;54.75;3.45;;;;;;;21.98;55.92;99019.66;7313906;19;129610;-40
2023/03/18 02:35:29;;;;;;;62.67;4.03;;;;;;;21.95;55.75;99015.53;7313505;19;128940;-41
2023/03/18 02:37:54;;;;;;;;;;;;;;;21.96;57.86;99023.22;7312226;19;129577;-40
2023/03/18 02:40:29;;;;;;;59.92;3.55;;;;;;;21.89;57.38;99014.38;7314475;19;129322;-40
2023/03/18 02:42:56;;;;;;;55.42;3.53;;;;;;;21.89;56.18;99014.38;7313988;19;129466;-40
2023/03/18 02:45:47;;;;;;;74.07;4.97;;;;;;;21.83;57.99;99006.34;7314485;19;129084;-40
2023/03/18 02:48:16;;;;;;;35.17;2.45;;;;;;;21.87;56.53;99016.31;7312469;19;128937;-40
2023/03/18 02:50:42;;;;;;;32.67;2.22;;;;;;;21.72;56.04;99007.38;7314093;19;129400;-41
2023/03/18 02:53:11;;;;;;;54.15;3.28;;;;;;;21.82;56.73;99030.84;7311077;19;131177;-41
2023/03/18 02:55:36;;;;;;;52.70;3.08;;;;;;;21.79;56.41;99031.97;7311865;19;129790;-40
2023/03/18 02:58:02;;;;;;;29.83;2.35;;;;;;;21.80;56.20;99028.38;7313446;19;129327;-41
2023/03/18 03:00:27;;;;;;;24.60;2.17;;;;;;;21.79;56.33;99029.38;7314160;19;129072;-39
2023/03/18 03:02:52;;;;;;;86.18;5.03;;;;;;;21.76;56.41;99037.53;7311685;19;129927;-41
2023/03/18 03:05:18;;;;;;;87.87;5.30;;;;;;;21.74;55.60;99030.75;7313964;19;129166;-39
2023/03/18 03:07:43;;;;;;;90.70;5.43;;;;;;;21.63;56.34;99033.63;7311807;19;129345;-39
2023/03/18 03:10:09;;;;;;;19.08;1.73;;;;;;;21.75;57.02;99045.50;7312982;19;129384;-40
2023/03/18 03:12:36;;;;;;;64.55;3.67;;;;;;;21.70;56.22;99048.56;7313590;19;131950;-41
2023/03/18 03:15:03;;;;;;;49.25;3.40;;;;;;;21.69;56.34;99046.94;7310884;19;129218;-40
2023/03/18 03:17:28;;;;;;;40.53;2.70;;;;;;;21.71;55.40;99052.84;7311426;19;129256;-41
2023/03/18 03:19:53;;;;;;;59.53;3.70;;;;;;;21.67;55.43;99048.88;7312363;19;129459;-39
2023/03/18 03:22:19;;;;;;;88.15;5.03;;;;;;;21.56;54.74;99030.81;7310119;19;130310;-41
2023/03/18 03:24:44;;;;;;;44.40;2.97;;;;;;;21.63;56.14;99047.56;7312799;19;129364;-39
2023/03/18 03:27:11;;;;;;;57.27;3.53;;;;;;;21.62;54.96;99051.13;7312665;19;129148;-40
2023/03/18 03:29:36;;;;;;;19.45;1.67;;;;;;;21.61;55.43;99049.50;7309737;19;130199;-40
2023/03/18 03:32:02;;;;;;;54.03;3.05;;;;;;;21.64;54.93;99053.59;7312904;19;129115;-40
2023/03/18 03:34:28;;;;;;;36.28;2.47;;;;;;;21.62;56.01;99050.28;7309963;19;130262;-40
2023/03/18 03:36:53;;;;;;;49.70;3.27;;;;;;;21.58;55.09;99056.81;7310168;19;128843;-41
2023/03/18 03:39:18;;;;;;;41.80;2.80;;;;;;;21.58;55.68;99057.66;7310623;19;130084;-41
2023/03/18 03:41:44;;;;;;;49.85;3.00;;;;;;;21.60;55.67;99058.28;7312465;19;129288;-40
2023/03/18 03:44:10;;;;;;;28.02;2.03;;;;;;;21.60;55.33;99047.84;7310809;19;128871;-40
2023/03/18 03:46:36;;;;;;;51.90;3.25;;;;;;;21.60;55.52;99066.16;7311052;19;129204;-40
2023/03/18 03:49:01;;;;;;;71.13;4.07;;;;;;;21.58;54.93;99072.50;7308663;19;130831;-40
2023/03/18 03:51:27;;;;;;;76.13;4.35;;;;;;;21.60;55.85;99068.75;7311192;19;128979;-40
2023/03/18 03:53:52;;;;;;;58.78;3.83;;;;;;;21.56;55.57;99071.84;7310545;19;129003;-41
2023/03/18 03:56:18;;;;;;;87.90;5.22;;;;;;;21.56;55.30;99056.97;7309940;19;129256;-41
2023/03/18 03:58:44;;;;;;;46.45;3.03;;;;;;;21.56;56.15;99064.81;7309075;19;129423;-41
2023/03/18 04:01:10;;;;;;;45.65;2.88;;;;;;;21.57;54.93;99073.47;7312276;19;132288;-40
2023/03/18 04:03:35;;;;;;;41.47;2.67;;;;;;;21.55;55.52;99073.63;7310544;19;129210;-40
2023/03/18 04:06:01;;;;;;;61.07;3.80;;;;;;;21.58;55.65;99075.97;7309471;19;129118;-40
2023/03/18 04:08:26;;;;;;;55.67;3.50;;;;;;;21.44;55.89;99062.56;7310648;19;129251;-40
2023/03/18 04:10:52;;;;;;;110.37;6.27;;;;;;;21.55;55.38;99086.69;7310393;19;129598;-41
2023/03/18 04:13:17;;;;;;;39.58;2.63;;;;;;;21.55;54.88;99094.53;7309984;19;129451;-39
2023/03/18 04:15:43;;;;;;;37.10;2.50;;;;;;;21.56;55.50;99098.81;7311057;19;129152;-41
2023/03/18 04:18:09;;;;;;;50.42;3.03;;;;;;;21.53;55.33;99096.50;7310374;19;129836;-41
2023/03/18 04:20:38;;;;;;;51.50;3.27;;;;;;;21.53;56.77;99101.75;7311579;19;129756;-40
2023/03/18 04:23:04;;;;;;;45.97;3.22;;;;;;;21.52;55.81;99102.69;7310175;19;129135;-41
2023/03/18 04:25:29;;;;;;;41.15;2.90;;;;;;;21.50;55.65;99099.41;7307423;19;129735;-41
2023/03/18 04:27:55;;;;;;;69.50;4.07;;;;;;;21.51;55.90;99095.84;7310451;19;131045;-41
2023/03/18 04:30:22;;;;;;;40.57;2.77;;;;;;;21.55;56.75;99096.38;7311968;19;130976;-40
2023/03/18 04:32:49;;;;;;;;;;;;;;;21.59;57.78;99101.13;7310266;19;128871;-41
2023/03/18 04:35:15;;;;;;;65.95;4.07;;;;;;;21.60;56.37;99102.75;7310002;19;129027;-39
2023/03/18 04:37:41;;;;;;;50.55;3.00;;;;;;;21.59;56.00;99101.13;7308801;19;129244;-40
2023/03/18 04:40:06;;;;;;;38.90;2.53;;;;;;;21.64;54.76;99101.50;7310527;19;129212;-40
2023/03/18 04:42:32;;;;;;;25.45;1.90;;;;;;;22.00;53.53;99101.47;7309440;19;129698;-41
2023/03/18 04:44:58;;;;;;;41.97;2.80;;;;;;;22.40;52.53;99104.28;7310224;19;129028;-41
2023/03/18 04:47:23;;;;;;;56.43;3.30;;;;;;;22.80;51.27;99101.88;7309066;19;129300;-41
2023/03/18 04:49:49;;;;;;;60.30;3.60;;;;;;;22.95;50.11;99084.53;7308370;19;129756;-42
2023/03/18 04:52:15;;;;;;;35.45;2.65;;;;;;;23.25;50.02;99102.31;7310199;19;129581;-41
2023/03/18 04:54:41;;;;;;;51.10;3.45;;;;;;;23.29;49.46;99087.91;7306000;19;129549;-41
2023/03/18 04:57:07;;;;;;;78.47;4.57;;;;;;;23.38;49.28;99092.19;7307318;19;130212;-39
2023/03/18 04:59:32;;;;;;;19.02;1.73;;;;;;;23.59;48.74;99115.28;7310920;19;129451;-40
2023/03/18 05:01:58;;;;;;;49.78;3.38;;;;;;;23.51;48.34;99099.56;7309680;19;129290;-40
2023/03/18 05:04:24;;;;;;;62.60;3.97;;;;;;;23.69;47.98;99116.78;7307317;19;129090;-40
2023/03/18 05:06:50;;;;;;;61.03;3.60;;;;;;;23.74;48.27;99114.47;7309811;19;129817;-41
2023/03/18 05:09:17;;;;;;;50.00;3.17;;;;;;;23.89;47.46;99107.56;7306580;19;130379;-41
2023/03/18 05:11:42;;;;;;;48.23;3.30;;;;;;;23.95;47.47;99112.16;7308725;19;129427;-40
2023/03/18 05:14:07;;;;;;;65.27;3.67;;;;;;;24.01;47.25;99111.53;7306944;19;128923;-40
2023/03/18 05:16:33;;;;;;;45.17;2.78;;;;;;;24.13;47.08;99112.81;7309155;19;130941;-41
2023/03/18 05:18:58;;;;;;;51.55;3.25;;;;;;;24.11;46.63;99111.34;7307918;19;130305;-39
2023/03/18 05:21:24;;;;;;;59.73;3.63;;;;;;;24.19;47.16;99120.03;7306062;19;129103;-39
2023/03/18 05:23:49;;;;;;;63.60;3.87;;;;;;;24.27;46.98;99120.00;7306023;19;129474;-41
2023/03/18 05:26:15;;;;;;;37.08;2.33;;;;;;;24.32;46.75;99125.59;7308850;19;129440;-41
2023/03/18 05:28:41;;;;;;;42.47;3.03;;;;;;;24.30;46.65;99127.56;7307370;19;129346;-42
2023/03/18 05:31:06;;;;;;;43.53;2.70;;;;;;;24.35;46.14;99133.13;7308197;19;129976;-41
2023/03/18 05:33:32;;;;;;;58.60;3.33;;;;;;;24.38;46.60;99124.91;7306302;19;129354;-40
2023/03/18 05:35:57;;;;;;;44.00;3.13;;;;;;;24.36;46.26;99131.31;7307682;19;129620;-40
2023/03/18 05:38:23;;;;;;;40.17;2.67;;;;;;;24.30;46.41;99124.94;7313166;19;130423;-41
2023/03/18 05:40:48;;;;;;;37.10;2.70;;;;;;;24.19;47.08;99135.81;7315582;19;129521;-40
2023/03/18 05:43:14;;;;;;;48.08;3.00;;;;;;;24.10;46.59;99126.28;7314183;19;129754;-40
2023/03/18 05:45:41;;;;;;;59.00;3.77;;;;;;;24.02;47.08;99122.84;7314517;19;129196;-41
2023/03/18 05:48:07;;;;;;;52.72;3.33;;;;;;;23.79;47.92;99127.94;7313655;19;129554;-41
2023/03/18 05:50:37;;;;;;;33.23;2.33;;;;;;;23.67;48.00;99134.50;7315781;19;129127;-40
2023/03/18 05:53:04;;;;;;;69.57;3.90;;;;;;;23.40;48.04;99111.22;7314642;19;129498;-40
2023/03/18 05:55:30;;;;;;;49.83;3.22;;;;;;;23.40;48.03;99137.44;7316658;19;130173;-40
2023/03/18 05:57:56;;;;;;;56.45;3.42;;;;;;;23.24;49.13;99129.50;7313541;19;129950;-41
2023/03/18 06:00:23;;;;;;;26.67;2.17;;;;;;;23.08;48.97;99135.53;7314668;19;129177;-40
2023/03/18 06:02:51;;;;;;;118.93;6.63;;;;;;;23.02;49.55;99132.75;7311294;19;129271;-41
2023/03/18 06:05:17;;;;;;;70.20;4.38;;;;;;;22.86;49.92;99114.31;7314624;19;130083;-39
2023/03/18 06:07:42;;;;;;;38.53;2.47;;;;;;;23.01;49.87;99131.09;7313764;19;129904;-41
2023/03/18 06:10:09;;;;;;;20.38;1.60;;;;;;;23.09;49.21;99134.56;7311320;19;128901;-41
2023/03/18 06:12:34;;;;;;;;;;;;;;;23.17;49.18;99136.38;7310979;19;130080;-41
2023/03/18 06:15:00;;;;;;;96.35;5.40;;;;;;;23.31;48.67;99138.41;7313067;19;129553;-41
2023/03/18 06:17:26;;;;;;;43.17;2.88;;;;;;;23.37;48.94;99148.22;7313385;19;129528;-40
2023/03/18 06:19:51;;;;;;;47.70;3.20;;;;;;;23.51;48.74;99150.22;7313702;19;129432;-39
2023/03/18 06:22:17;;;;;;;53.27;3.37;;;;;;;23.59;47.88;99146.78;7313025;19;129277;-41
2023/03/18 06:24:43;;;;;;;51.70;3.43;;;;;;;23.79;47.35;99143.69;7310299;19;129416;-38
2023/03/18 06:27:08;;;;;;;43.65;3.00;;;;;;;23.83;47.97;99144.97;7311530;19;131195;-40
2023/03/18 06:29:35;;;;;;;40.67;2.60;;;;;;;23.89;47.08;99144.34;7310559;19;130486;-39
2023/03/18 06:32:01;;;;;;;72.43;4.60;;;;;;;23.84;46.86;99151.88;7311530;19;129077;-40
2023/03/18 06:34:26;;;;;;;55.27;3.53;;;;;;;23.84;46.26;99148.44;7310337;19;129314;-41
2023/03/18 06:36:52;;;;;;;98.03;6.10;;;;;;;23.75;46.71;99142.34;7311156;19;130520;-41
2023/03/18 06:39:18;;;;;;;134.43;7.72;;;;;;;23.68;46.90;99149.28;7310497;19;129183;-40
2023/03/18 06:41:45;;;;;;;36.63;2.50;;;;;;;23.59;47.22;99147.63;7315686;19;129452;-40
2023/03/18 06:44:12;;;;;;;61.38;4.07;;;;;;;23.52;47.14;99154.50;7311659;19;129635;-39
2023/03/18 06:46:37;;;;;;;63.97;4.35;;;;;;;23.37;48.30;99152.69;7309103;19;129598;-40
2023/03/18 06:49:03;;;;;;;113.47;6.60;;;;;;;23.25;48.44;99152.13;7308403;19;129298;-39
2023/03/18 06:51:28;;;;;;;68.37;4.17;;;;;;;23.09;48.41;99152.91;7307799;19;129683;-40
2023/03/18 06:53:54;;;;;;;55.40;3.72;;;;;;;22.94;48.78;99135.34;7311681;19;129965;-40
2023/03/18 06:56:19;;;;;;;69.20;4.37;;;;;;;23.00;49.13;99160.91;7306230;19;130716;-39
2023/03/18 06:58:45;;;;;;;66.32;4.25;;;;;;;23.01;49.24;99162.53;7311619;19;129603;-38
2023/03/18 07:01:11;;;;;;;40.10;2.75;;;;;;;23.05;48.35;99163.88;7312248;19;129236;-41
2023/03/18 07:03:37;;;;;;;38.00;2.50;;;;;;;23.16;48.94;99155.72;7311268;19;129456;-40
2023/03/18 07:06:03;;;;;;;93.40;5.57;;;;;;;23.24;48.51;99147.84;7309349;19;130796;-41
2023/03/18 07:08:29;;;;;;;90.67;5.70;;;;;;;23.41;47.56;99154.81;7310095;19;130429;-40
2023/03/18 07:10:54;;;;;;;106.00;6.50;;;;;;;23.49;47.46;99159.25;7309859;19;129076;-40
2023/03/18 07:13:20;;;;;;;35.88;2.97;;;;;;;23.57;47.83;99160.06;7310850;19;130371;-40
2023/03/18 07:15:45;;;;;;;66.57;4.53;;;;;;;23.63;47.46;99148.94;7310267;19;131818;-42
2023/03/18 07:18:11;;;;;;;52.23;3.20;;;;;;;23.82;46.63;99164.34;7312148;19;128834;-39
2023/03/18 07:20:37;;;;;;;28.40;2.40;;;;;;;23.94;46.27;99168.28;7310017;19;129622;-42
2023/03/18 07:23:03;;;;;;;61.80;4.00;;;;;;;23.85;46.64;99148.25;7309927;19;129817;-41
2023/03/18 07:25:30;;;;;;;63.50;4.13;;;;;;;23.98;46.89;99180.13;7312272;19;129585;-40
2023/03/18 07:27:56;;;;;;;48.03;3.17;;;;;;;23.91;46.22;99173.88;7309000;19;129498;-41
2023/03/18 07:30:21;;;;;;;47.53;3.27;;;;;;;23.85;47.37;99168.47;7309729;19;131851;-40
2023/03/18 07:32:48;;;;;;;43.23;3.27;;;;;;;23.75;47.13;99165.19;7311448;19;130509;-38
2023/03/18 07:35:14;;;;;;;;;;;;;;;23.63;47.70;99167.31;7312913;19;129521;-40
2023/03/18 07:37:40;;;;;;;54.40;3.40;;;;;;;23.53;47.53;99169.25;7310327;19;130009;-40
2023/03/18 07:40:07;;;;;;;38.22;2.78;;;;;;;23.41;48.41;99167.09;7310573;19;129182;-41
2023/03/18 07:42:33;;;;;;;48.88;3.35;;;;;;;23.30;48.68;99163.00;7310186;19;129865;-41
2023/03/18 07:44:58;;;;;;;60.87;4.33;;;;;;;23.18;47.58;99166.88;7310951;19;129882;-40
2023/03/18 07:47:24;;;;;;;72.63;4.87;;;;;;;22.99;45.00;99165.31;7310756;19;129527;-41
2023/03/18 07:49:50;;;;;;;63.43;5.23;;;;;;;22.73;42.55;99148.03;7309356;19;129846;-40
2023/03/18 07:52:16;;;;;;;48.30;4.53;;;;;;;22.73;39.46;99158.50;7311269;19;129433;-40
2023/03/18 07:54:42;;;;;;;56.28;5.47;;;;;;;22.65;37.42;99156.69;7307234;19;129999;-41
2023/03/18 07:57:09;;;;;;;73.37;7.10;;;;;;;22.73;37.52;99159.34;7309217;19;129255;-41
2023/03/18 07:59:35;;;;;;;36.95;5.82;;;;;;;22.88;40.33;99160.38;7309956;19;130044;-40
2023/03/18 08:02:01;;;;;;;69.28;6.75;;;;;;;23.10;41.87;99164.22;7305603;19;129840;-40
2023/03/18 08:04:27;;;;;;;63.58;5.63;;;;;;;23.17;42.52;99162.63;7309373;19;129449;-42
2023/03/18 08:06:54;;;;;;;136.77;9.40;;;;;;;23.31;43.09;99175.13;7303923;19;130720;-40
2023/03/18 08:12:09;;;;;;;133.77;9.90;;;;;;;23.62;43.18;99172.72;7320173;19;129950;-63
2023/03/18 08:14:35;;;;;;;84.78;7.03;;;;;;;23.72;43.69;99173.34;7163505;19;3382948;-61
2023/03/18 08:17:02;;;;;;;81.73;7.00;;;;;;;23.85;43.29;99169.25;7340772;19;129597;-63
2023/03/18 08:19:28;;;;;;;118.93;9.43;;;;;;;23.94;44.28;99165.66;7334357;19;130778;-65
2023/03/18 08:21:54;;;;;;;72.07;5.93;;;;;;;23.93;44.17;99171.88;7341587;19;129814;-64
2023/03/18 08:24:20;;;;;;;54.93;5.60;;;;;;;23.84;44.80;99162.38;7345924;19;129120;-63
2023/03/18 08:26:46;;;;;;;71.20;6.73;;;;;;;23.82;45.18;99168.78;7341572;19;129321;-63
2023/03/18 08:29:11;;;;;;;107.57;8.07;;;;;;;23.72;45.44;99173.34;7339782;19;129949;-63
2023/03/18 08:31:37;;;;;;;75.50;6.13;;;;;;;23.63;45.48;99184.84;7337755;19;131539;-61
2023/03/18 08:34:03;;;;;;;40.70;4.83;;;;;;;23.55;46.53;99177.78;7341445;19;132139;-63
2023/03/18 08:36:28;;;;;;;26.37;4.23;;;;;;;23.42;46.82;99171.38;7338949;19;130386;-64
2023/03/18 08:38:54;;;;;;;130.97;9.10;;;;;;;23.32;47.19;99175.94;7341588;19;129596;-63
2023/03/18 08:41:20;;;;;;;74.85;5.47;;;;;;;23.20;46.92;99178.03;7328071;19;131502;-63
2023/03/18 08:43:46;;;;;;;91.50;7.25;;;;;;;23.09;47.92;99183.53;7343087;19;129228;-63
2023/03/18 08:46:11;;;;;;;59.03;5.47;;;;;;;23.00;48.20;99187.13;7336185;19;129994;-65
2023/03/18 08:48:37;;;;;;;92.30;7.15;;;;;;;22.92;48.20;99185.28;7338023;19;129629;-63
2023/03/18 08:51:09;;;;;;;101.37;8.03;;;;;;;22.85;48.46;99188.72;7330566;19;129322;-63
2023/03/18 08:53:35;;;;;;;63.58;5.25;;;;;;;22.86;49.25;99188.53;7339238;19;129425;-63
2023/03/18 08:56:02;;;;;;;64.73;5.43;;;;;;;22.81;48.83;99180.34;7343606;19;130283;-63
2023/03/18 08:58:27;;;;;;;62.67;5.15;;;;;;;22.78;49.82;99187.69;7346243;19;129105;-63
2023/03/18 09:00:54;;;;;;;51.67;4.67;;;;;;;22.69;48.88;99183.41;7342332;19;129100;-63
2023/03/18 09:03:20;;;;;;;38.92;4.43;;;;;;;22.62;49.46;99185.81;7345193;19;128859;-64
2023/03/18 09:05:49;;;;;;;43.97;4.17;;;;;;;22.55;50.16;99186.59;7345295;19;129786;-62
2023/03/18 09:08:15;;;;;;;61.78;5.22;;;;;;;22.50;50.35;99188.81;7345829;19;129895;-60
2023/03/18 09:10:40;;;;;;;94.10;7.03;;;;;;;22.47;50.95;99194.38;7346129;19;129040;-62
2023/03/18 09:13:07;;;;;;;33.30;3.63;;;;;;;22.39;50.54;99196.94;7346922;19;130035;-62
2023/03/18 09:15:32;;;;;;;36.80;3.40;;;;;;;22.35;51.27;99190.34;7346042;19;129228;-63
2023/03/18 09:17:58;;;;;;;60.10;5.10;;;;;;;22.27;51.64;99188.53;7345221;19;129166;-63
2023/03/18 09:20:25;;;;;;;43.40;4.13;;;;;;;22.32;51.61;99185.44;7346876;19;129041;-62
2023/03/18 09:22:51;;;;;;;49.72;4.22;;;;;;;22.26;51.71;99183.44;7324231;19;129147;-63
2023/03/18 09:25:17;;;;;;;22.53;2.90;;;;;;;22.24;51.82;99188.00;7314655;19;132541;-62
2023/03/18 09:27:42;;;;;;;54.20;4.35;;;;;;;22.25;52.54;99189.63;7316393;19;131381;-62
2023/03/18 09:30:09;;;;;;;51.70;4.53;;;;;;;22.21;52.36;99186.53;7316236;19;128993;-62
2023/03/18 09:32:34;;;;;;;30.63;3.25;;;;;;;22.20;51.89;99187.47;7316591;19;129131;-63
2023/03/18 09:34:59;;;;;;;29.40;3.45;;;;;;;22.18;53.23;99183.41;7317170;19;129649;-62
2023/03/18 09:37:25;;;;;;;30.77;3.47;;;;;;;22.19;52.98;99192.88;7314518;19;130345;-63
2023/03/18 09:39:50;;;;;;;45.77;3.73;;;;;;;22.16;52.63;99185.34;7317426;19;128956;-63
2023/03/18 09:42:36;;;;;;;70.37;5.67;;;;;;;22.19;54.48;99179.78;7314385;19;129467;-62
2023/03/18 09:45:10;;;;;;;26.02;3.17;;;;;;;22.09;54.36;99173.81;7316655;19;129360;-63
2023/03/18 09:48:15;;;;;;;63.35;4.80;;;;;;;22.18;54.55;99191.25;7313670;19;129507;-62
2023/03/18 09:51:12;;;;;;;35.38;3.53;;;;;;;22.16;55.32;99187.94;7315216;19;129379;-62
2023/03/18 09:54:05;;;;;;;40.80;3.33;;;;;;;22.15;54.63;99189.75;7316222;19;129178;-64
2023/03/18 09:56:34;;;;;;;36.67;3.20;;;;;;;22.15;54.41;99184.50;7316391;19;129957;-63
2023/03/18 09:59:17;;;;;;;37.83;3.47;;;;;;;22.12;53.60;99197.06;7317429;19;129579;-64
2023/03/18 10:01:46;;;;;;;69.13;5.10;;;;;;;22.09;53.15;99190.38;7317147;19;129296;-62
2023/03/18 10:04:17;;;;;;;42.30;3.83;;;;;;;22.06;54.14;99192.47;7313335;19;129126;-64
2023/03/18 10:06:44;;;;;;;58.08;4.20;;;;;;;22.07;53.25;99188.84;7314475;19;129012;-63
2023/03/18 10:09:19;;;;;;;41.13;3.47;;;;;;;22.04;53.88;99186.53;7316930;19;129250;-63
2023/03/18 10:11:51;;;;;;;51.83;4.20;;;;;;;22.02;53.34;99188.50;7312186;19;129085;-63
2023/03/18 10:14:25;;;;;;;39.05;3.25;;;;;;;22.01;53.84;99186.84;7316146;19;128740;-62
2023/03/18 10:17:00;;;;;;;43.85;3.78;;;;;;;21.96;54.29;99180.28;7313397;19;129068;-62
2023/03/18 10:19:27;;;;;;;46.75;3.67;;;;;;;21.91;53.73;99179.91;7313406;19;130821;-62
2023/03/18 10:22:05;;;;;;;70.75;5.00;;;;;;;21.95;53.45;99191.72;7315159;19;129262;-62
2023/03/18 10:24:41;;;;;;;34.75;3.03;;;;;;;21.96;53.96;99195.97;7315743;19;128966;-62
2023/03/18 10:27:49;;;;;;;79.70;5.65;;;;;;;21.94;54.85;99195.31;7312531;19;131119;-62
2023/03/18 10:30:30;;;;;;;40.47;3.42;;;;;;;21.96;55.23;99195.19;7314521;19;129542;-62
2023/03/18 10:33:08;;;;;;;40.78;3.67;;;;;;;21.97;54.73;99199.41;7316489;19;128907;-62
2023/03/18 10:35:44;;;;;;;50.63;3.80;;;;;;;21.95;54.61;99193.50;7314849;19;130228;-62
2023/03/18 10:38:09;;;;;;;37.80;3.45;;;;;;;21.90;54.09;99204.44;7310427;19;130447;-62
2023/03/18 10:40:38;;;;;;;41.90;3.25;;;;;;;21.89;54.42;99202.81;7313796;19;129590;-63
2023/03/18 10:43:13;;;;;;;70.00;4.75;;;;;;;21.87;55.70;99198.69;7312950;19;129421;-61
2023/03/18 10:45:40;;;;;;;55.55;4.28;;;;;;;21.89;54.04;99194.13;7314686;19;129029;-63
2023/03/18 10:48:10;;;;;;;54.38;3.80;;;;;;;21.88;54.91;99206.38;7313982;19;129372;-63
2023/03/18 10:50:57;;;;;;;54.88;4.25;;;;;;;21.77;54.73;99185.69;7311846;19;129173;-63
2023/03/18 10:53:48;;;;;;;38.05;3.10;;;;;;;21.92;57.43;99205.13;7314460;19;129515;-63
2023/03/18 10:56:14;;;;;;;61.60;4.32;;;;;;;21.89;55.45;99205.44;7311962;19;129644;-62
2023/03/18 10:58:41;;;;;;;45.30;3.65;;;;;;;21.91;54.70;99203.44;7312694;19;129478;-62
2023/03/18 11:01:08;;;;;;;;;;;;;;;21.92;57.24;99199.88;7311935;19;131381;-62
2023/03/18 11:03:42;;;;;;;29.67;2.83;;;;;;;21.88;56.69;99201.16;7315516;19;129239;-62
2023/03/18 11:06:16;;;;;;;39.75;3.30;;;;;;;21.92;57.14;99202.50;7312962;19;129221;-62
2023/03/18 11:08:41;;;;;;;34.75;3.08;;;;;;;21.89;55.62;99205.44;7313412;19;129136;-62
2023/03/18 11:11:32;;;;;;;44.63;3.65;;;;;;;21.90;57.47;99201.81;7311858;19;130258;-62
2023/03/18 11:14:00;;;;;;;85.00;5.90;;;;;;;21.91;55.29;99213.94;7314157;19;129082;-62
2023/03/18 11:16:29;;;;;;;36.05;3.40;;;;;;;21.91;55.53;99203.44;7312891;19;128984;-63
2023/03/18 11:18:56;;;;;;;37.88;3.05;;;;;;;21.91;55.75;99203.44;7314801;19;129380;-62
2023/03/18 11:21:22;;;;;;;;;;;;;;;21.98;57.24;99213.34;7313603;19;129119;-61
2023/03/18 11:24:33;;;;;;;48.47;3.67;;;;;;;21.94;56.94;99213.66;7311941;19;129651;-62
2023/03/18 11:26:58;;;;;;;29.38;2.70;;;;;;;21.92;56.27;99205.13;7312768;19;129496;-62